createdAt,value
2018-07-05T00:04:58.577Z,21.40
2018-07-05T00:10:13.347Z,21.40
2018-07-05T00:15:28.200Z,21.30
2018-07-05T00:20:42.842Z,21.20
2018-07-05T00:25:57.923Z,21.20
2018-07-05T00:31:12.699Z,21.30
2018-07-05T00:36:29.262Z,21.30
2018-07-05T00:41:43.992Z,21.30
2018-07-05T00:46:59.651Z,21.20
2018-07-05T00:52:14.743Z,21.00
2018-07-05T00:57:29.539Z,21.00
2018-07-05T01:02:44.673Z,20.90
2018-07-05T01:07:59.488Z,20.90
2018-07-05T01:13:14.821Z,20.80
2018-07-05T01:18:29.603Z,20.90
2018-07-05T01:23:44.553Z,20.90
2018-07-05T01:28:59.562Z,20.90
2018-07-05T01:34:16.009Z,20.80
2018-07-05T01:39:30.804Z,20.80
2018-07-05T01:44:45.848Z,20.70
2018-07-05T01:50:00.793Z,20.80
2018-07-05T01:55:15.461Z,20.80
2018-07-05T02:00:30.559Z,20.70
2018-07-05T02:05:45.352Z,20.70
2018-07-05T02:11:01.958Z,20.80
2018-07-05T02:16:16.827Z,20.80
2018-07-05T02:21:32.568Z,20.80
2018-07-05T02:26:47.172Z,20.60
2018-07-05T02:32:01.866Z,20.10
2018-07-05T02:37:23.411Z,19.80
2018-07-05T02:42:38.137Z,20.00
2018-07-05T02:47:53.092Z,20.20
2018-07-05T02:53:07.881Z,20.20
2018-07-05T02:58:22.579Z,20.30
2018-07-05T03:03:37.412Z,20.40
2018-07-05T03:08:52.076Z,20.50
2018-07-05T03:14:06.984Z,20.50
2018-07-05T03:19:21.961Z,20.80
2018-07-05T03:24:37.125Z,20.60
2018-07-05T03:29:51.772Z,20.70
2018-07-05T03:35:08.360Z,20.70
2018-07-05T03:40:23.604Z,20.60
2018-07-05T03:45:38.393Z,20.60
2018-07-05T03:50:53.243Z,20.80
2018-07-05T03:56:07.881Z,20.90
2018-07-05T04:01:24.731Z,20.80
2018-07-05T04:06:39.759Z,20.80
2018-07-05T04:11:55.276Z,20.90
2018-07-05T04:17:10.159Z,20.80
2018-07-05T04:22:24.949Z,20.70
2018-07-05T04:27:39.711Z,20.60
2018-07-05T04:32:54.462Z,20.50
2018-07-05T04:38:09.787Z,20.40
2018-07-05T04:43:25.416Z,20.50
2018-07-05T04:48:40.213Z,20.60
2018-07-05T04:53:55.115Z,20.70
2018-07-05T04:59:09.956Z,20.70
2018-07-05T05:04:25.108Z,20.90
2018-07-05T05:09:40.093Z,21.10
2018-07-05T05:14:54.796Z,21.30
2018-07-05T05:20:09.535Z,21.30
2018-07-05T05:30:34.029Z,21.60
2018-07-05T05:35:52.444Z,21.60
2018-07-05T05:41:07.188Z,21.50
2018-07-05T05:46:22.563Z,21.60
2018-07-05T05:51:37.466Z,21.80
2018-07-05T05:56:52.532Z,21.60
2018-07-05T06:02:07.380Z,21.60
2018-07-05T06:07:22.127Z,21.60
2018-07-05T06:12:37.359Z,21.50
2018-07-05T06:17:52.474Z,21.60
2018-07-05T06:23:07.317Z,21.70
2018-07-05T06:28:21.979Z,21.70
2018-07-05T06:33:36.640Z,21.70
2018-07-05T06:38:51.498Z,21.70
2018-07-05T06:44:06.833Z,21.70
2018-07-05T06:49:21.816Z,21.40
2018-07-05T06:54:36.677Z,21.10
2018-07-05T06:59:51.437Z,21.10
2018-07-05T07:05:06.100Z,21.20
2018-07-05T07:10:20.852Z,21.30
2018-07-05T07:15:35.592Z,21.50
2018-07-05T07:20:51.244Z,21.70
2018-07-05T07:26:06.373Z,21.90
2018-07-05T07:31:21.104Z,22.10
2018-07-05T07:36:35.991Z,22.10
2018-07-05T07:41:47.592Z,22.20
2018-07-05T07:46:49.965Z,22.20
2018-07-05T07:51:52.341Z,22.20
2018-07-05T07:56:54.721Z,22.20
2018-07-05T08:01:57.105Z,22.30
2018-07-05T08:06:59.476Z,22.70
2018-07-05T08:12:01.894Z,23.00
2018-07-05T08:17:04.274Z,23.20
2018-07-05T08:22:06.637Z,23.20
2018-07-05T08:27:09.025Z,23.60
2018-07-05T08:32:11.428Z,23.60
2018-07-05T08:37:14.643Z,23.60
2018-07-05T08:42:17.101Z,23.80
2018-07-05T08:47:19.484Z,23.80
2018-07-05T08:52:21.918Z,23.30
2018-07-05T08:57:24.293Z,22.50
2018-07-05T09:02:26.703Z,22.30
2018-07-05T09:07:29.073Z,22.20
2018-07-05T09:12:31.455Z,22.10
2018-07-05T09:17:33.908Z,22.00
2018-07-05T09:22:36.279Z,22.10
2018-07-05T09:27:38.776Z,21.90
2018-07-05T09:32:41.157Z,21.70
2018-07-05T09:37:43.622Z,21.40
2018-07-05T09:42:45.976Z,21.30
2018-07-05T09:47:48.346Z,21.40
2018-07-05T09:52:50.812Z,21.30
2018-07-05T09:57:53.142Z,21.70
2018-07-05T10:02:55.537Z,21.70
2018-07-05T10:07:57.968Z,21.70
2018-07-05T10:13:00.421Z,21.90
2018-07-05T10:18:02.844Z,22.00
2018-07-05T10:23:05.243Z,21.90
2018-07-05T10:28:07.663Z,21.80
2018-07-05T10:33:22.419Z,21.70
2018-07-05T10:38:24.810Z,21.80
2018-07-05T10:43:39.589Z,22.20
2018-07-05T10:48:54.453Z,21.90
2018-07-05T10:54:09.255Z,21.70
2018-07-05T10:59:24.059Z,21.70
2018-07-05T11:04:38.908Z,21.60
2018-07-05T11:09:53.608Z,21.30
2018-07-05T11:15:08.463Z,21.20
2018-07-05T11:20:23.177Z,21.30
2018-07-05T11:25:37.966Z,21.30
2018-07-05T11:30:52.677Z,21.60
2018-07-05T11:36:07.301Z,21.80
2018-07-05T11:41:22.126Z,21.80
2018-07-05T11:46:36.777Z,21.70
2018-07-05T11:51:52.122Z,22.00
2018-07-05T11:57:06.808Z,22.30
2018-07-05T12:02:21.570Z,22.40
2018-07-05T12:07:36.224Z,22.50
2018-07-05T12:12:50.829Z,22.40
2018-07-05T12:18:05.724Z,22.50
2018-07-05T12:23:20.396Z,22.60
2018-07-05T12:28:35.257Z,22.40
2018-07-05T12:33:50.128Z,22.20
2018-07-05T12:39:05.026Z,21.80
2018-07-05T12:44:19.836Z,21.90
2018-07-05T12:49:34.489Z,21.90
2018-07-05T12:54:49.200Z,22.30
2018-07-05T13:00:04.024Z,22.30
2018-07-05T13:05:19.273Z,22.50
2018-07-05T13:10:34.079Z,22.50
2018-07-05T13:15:48.796Z,22.50
2018-07-05T13:21:03.580Z,22.80
2018-07-05T13:26:18.324Z,23.40
2018-07-05T13:31:33.481Z,23.80
2018-07-05T13:36:48.272Z,23.70
2018-07-05T13:42:03.390Z,23.70
2018-07-05T13:47:18.270Z,24.00
2018-07-05T13:52:32.964Z,24.40
2018-07-05T13:57:48.035Z,24.50
2018-07-05T14:03:03.126Z,24.90
2018-07-05T14:08:17.976Z,25.20
2018-07-05T14:13:32.752Z,25.20
2018-07-05T14:18:47.611Z,25.30
2018-07-05T14:24:02.223Z,24.80
2018-07-05T14:29:17.498Z,24.50
2018-07-05T14:34:37.551Z,24.20
2018-07-05T14:39:52.267Z,24.10
2018-07-05T14:45:06.990Z,24.10
2018-07-05T14:50:21.559Z,24.40
2018-07-05T14:55:36.497Z,24.70
2018-07-05T15:00:51.274Z,25.00
2018-07-05T15:06:06.244Z,24.60
2018-07-05T15:11:21.036Z,24.40
2018-07-05T15:16:35.820Z,24.40
2018-07-05T15:21:50.857Z,24.80
2018-07-05T15:27:05.642Z,24.70
2018-07-05T15:32:20.488Z,24.60
2018-07-05T15:42:44.255Z,25.20
2018-07-05T15:47:58.988Z,25.30
2018-07-05T15:53:13.729Z,24.50
2018-07-05T15:58:28.619Z,24.10
2018-07-05T16:03:43.378Z,23.30
2018-07-05T16:08:58.550Z,23.30
2018-07-05T16:14:13.537Z,23.40
2018-07-05T16:19:28.461Z,23.20
2018-07-05T16:24:43.193Z,23.20
2018-07-05T16:29:57.920Z,22.90
2018-07-05T16:35:12.698Z,22.80
2018-07-05T16:40:27.491Z,23.20
2018-07-05T16:45:42.043Z,23.60
2018-07-05T16:50:57.020Z,23.40
2018-07-05T16:56:11.893Z,23.50
2018-07-05T17:01:26.560Z,23.70
2018-07-05T17:06:41.453Z,23.80
2018-07-05T17:11:57.516Z,24.10
2018-07-05T17:17:12.588Z,23.80
2018-07-05T17:22:27.296Z,23.60
2018-07-05T17:27:41.956Z,23.50
2018-07-05T17:32:57.660Z,23.20
2018-07-05T17:38:12.514Z,23.20
2018-07-05T17:43:27.272Z,23.10
2018-07-05T17:48:41.977Z,23.10
2018-07-05T17:53:56.783Z,23.10
2018-07-05T17:59:11.779Z,23.10
2018-07-05T18:04:28.696Z,23.50
2018-07-05T18:09:43.457Z,23.40
2018-07-05T18:14:58.757Z,23.10
2018-07-05T18:20:13.503Z,23.00
2018-07-05T18:25:28.177Z,23.10
2018-07-05T18:30:43.165Z,23.20
2018-07-05T18:35:58.252Z,23.10
2018-07-05T18:41:14.426Z,23.10
2018-07-05T18:46:29.198Z,23.30
2018-07-05T18:51:44.046Z,23.40
2018-07-05T18:56:58.769Z,23.40
2018-07-05T19:02:13.460Z,23.50
2018-07-05T19:07:28.123Z,23.40
2018-07-05T19:12:43.572Z,23.50
2018-07-05T19:17:58.228Z,23.40
2018-07-05T19:23:13.075Z,23.10
2018-07-05T19:28:27.888Z,23.10
2018-07-05T19:33:42.517Z,22.20
2018-07-05T19:38:57.439Z,21.50
2018-07-05T19:44:12.236Z,21.20
2018-07-05T19:49:28.180Z,20.50
2018-07-05T19:54:43.159Z,19.50
2018-07-05T19:59:58.217Z,19.80
2018-07-05T20:05:13.293Z,20.00
2018-07-05T20:10:28.463Z,19.80
2018-07-05T20:15:43.308Z,19.90
2018-07-05T20:20:58.057Z,20.00
2018-07-05T20:26:12.781Z,20.00
2018-07-05T20:31:27.445Z,19.80
2018-07-05T20:36:42.272Z,19.80
2018-07-05T20:41:57.093Z,19.90
2018-07-05T20:47:11.846Z,19.90
2018-07-05T20:52:32.276Z,19.80
2018-07-05T20:57:47.067Z,19.90
2018-07-05T21:03:01.875Z,19.90
2018-07-05T21:08:16.567Z,19.90
2018-07-05T21:13:31.598Z,19.80
2018-07-05T21:18:46.308Z,19.50
2018-07-05T21:24:00.961Z,19.40
2018-07-05T21:29:15.668Z,19.30
2018-07-05T21:34:30.515Z,19.30
2018-07-05T21:39:45.420Z,19.30
2018-07-05T21:45:00.093Z,19.40
2018-07-05T21:50:14.953Z,19.40
2018-07-05T21:55:30.500Z,19.40
2018-07-05T22:00:45.677Z,19.50
2018-07-05T22:06:00.438Z,19.50
2018-07-05T22:11:15.381Z,19.40
2018-07-05T22:16:30.083Z,19.20
2018-07-05T22:21:50.932Z,19.20
2018-07-05T22:27:05.882Z,19.10
2018-07-05T22:32:20.618Z,19.10
2018-07-05T22:37:35.517Z,19.10
2018-07-05T22:42:50.268Z,19.20
2018-07-05T22:48:04.979Z,19.30
2018-07-05T22:53:20.105Z,19.40
2018-07-05T22:58:35.104Z,19.50
2018-07-05T23:03:49.809Z,19.50
2018-07-05T23:09:04.964Z,19.60
2018-07-05T23:14:19.850Z,19.60
2018-07-05T23:19:34.582Z,19.70
2018-07-05T23:24:49.359Z,19.70
2018-07-05T23:30:04.052Z,19.70
2018-07-05T23:35:18.817Z,19.80
2018-07-05T23:40:33.679Z,19.80
2018-07-05T23:45:48.327Z,19.80
2018-07-05T23:51:03.319Z,19.80
2018-07-05T23:56:18.268Z,19.80
